الصفحة الرئيسية
METAR-TAF:

METAR-TAF

مطار :

Tarawa, كيريباس

دائرة عرض: 01-21N, خط طول: 172-55E, ارتفاع: 2 متر

مراقبة الطقس الحالي

تاريخ ووقت الإصدار 22 دقيقة قبل الساعة 00:00UTC
ريح 5 عقدة من الشرق/الشمال الشرقي
درجة الحرارة 31°درجة مئوية
الرطوبة 71%
ضغط 1010 hPa
الرؤية 10 كم أو أكثر
غيوم متفرقة على ارتفاع 1800 قدم, مزن ركامية عمودية.

METAR: NGTA 180000Z 06005KT 9999 SCT018TCU 31/25 Q1010

زمن: 14:22 (00:22 UTC)

توقعات

تاريخ ووقت الإصدار 55 دقيقة قبل الساعة 23:27UTC
التوقعات صالحة من18 الساعة 00 UTC إلى 18 الساعة 24 UTC
ريح 8 عقدة من الشرق
الرؤية 10 كم أو أكثر
غيوم متفرقة على ارتفاع 1800 قدم
غيوم متفرقة على ارتفاع 4000 قدم
نظرية الاحتمالات 40% :
مؤقت
من 18 الساعة 08 UTC إلى 18 الساعة 24 UTC
الرؤية: 5000 متر
غيوم قليلة على ارتفاع 1800 قدم, مزنة ركامية.
عاصفة رعدية, مطر

TAF: NGTA 172327Z 1800/1824 08008KT 9999 SCT018 SCT040 PROB40 TEMPO 1808/1824 5000 TSRA FEW018CB

أرصاد الطقس والتوقعات من أكثر من 4000 مطار (تقارير الطقس للمطار METAR والتنبؤ بالطقس بالمطارTAF).

المحطات المتاحة هي النقط الصفراء والحمراء على الخريطة.

حرك المؤشر فوق النقطة لمعرفة اسم المحطة.

ثم انقر لمعرفة أرصاد وتوقعات الطقس.

لتغيير الخارطة: اضغط على الأزرار الخضراء مع رمز الصليب الأسود للتكبير. على الزر الأخضر مع شرطة للتصغير، أو على الأسهم الخضراء للخرائط المجاورة.


METAR-TAF: